createdAt,value
2023-01-09T05:04:07.549Z,8.55
2023-01-09T05:08:10.093Z,8.56
2023-01-09T05:12:12.561Z,8.54
2023-01-09T05:16:15.133Z,8.55
2023-01-09T05:20:18.985Z,8.48
2023-01-09T05:24:21.639Z,8.39
2023-01-09T05:28:24.131Z,8.43
2023-01-09T05:32:26.609Z,8.51
2023-01-09T05:36:30.544Z,8.47
2023-01-09T05:40:40.142Z,8.46
2023-01-09T05:44:43.106Z,8.51
2023-01-09T05:48:45.653Z,8.48
2023-01-09T05:52:49.476Z,8.56
2023-01-09T05:56:51.966Z,8.49
2023-01-09T06:00:54.841Z,8.40
2023-01-09T06:04:57.393Z,8.35
2023-01-09T06:09:01.235Z,8.39
2023-01-09T06:13:03.797Z,8.32
2023-01-09T06:17:07.383Z,8.22
2023-01-09T06:21:09.789Z,8.33
2023-01-09T06:25:14.201Z,8.29
2023-01-09T06:29:16.701Z,8.37
2023-01-09T06:33:19.770Z,8.44
2023-01-09T06:37:22.248Z,8.45
2023-01-09T06:41:26.068Z,8.37
2023-01-09T06:45:28.521Z,8.27
2023-01-09T06:49:31.030Z,8.24
2023-01-09T06:53:34.997Z,8.28
2023-01-09T06:57:38.886Z,7.92
2023-01-09T07:01:41.850Z,7.63
2023-01-09T07:05:44.537Z,7.37
2023-01-09T07:09:47.138Z,7.30
2023-01-09T07:13:50.936Z,7.40
2023-01-09T07:17:53.947Z,7.49
2023-01-09T07:21:56.433Z,7.37
2023-01-09T07:26:00.456Z,7.24
2023-01-09T07:30:05.696Z,7.42
2023-01-09T07:34:08.213Z,7.54
2023-01-09T07:38:10.719Z,7.67
2023-01-09T07:42:13.451Z,7.83
2023-01-09T07:46:17.322Z,7.85
2023-01-09T07:50:19.900Z,7.85
2023-01-09T07:54:22.594Z,7.91
2023-01-09T07:58:25.081Z,7.86
2023-01-09T08:02:28.937Z,7.96
2023-01-09T08:06:32.374Z,7.97
2023-01-09T08:10:34.874Z,8.04
2023-01-09T08:14:37.363Z,7.97
2023-01-09T08:18:41.155Z,8.01
2023-01-09T08:22:49.360Z,7.99
2023-01-09T08:26:51.833Z,8.05
2023-01-09T08:30:54.355Z,7.94
2023-01-09T08:34:58.229Z,7.99
2023-01-09T08:39:00.741Z,7.89
2023-01-09T08:43:20.790Z,7.80
2023-01-09T08:47:24.907Z,7.90
2023-01-09T08:51:28.875Z,7.83
2023-01-09T08:55:31.360Z,7.90
2023-01-09T08:59:33.940Z,7.97
2023-01-09T09:03:36.436Z,7.93
2023-01-09T09:07:41.462Z,7.74
2023-01-09T09:11:44.022Z,8.13
2023-01-09T09:15:46.526Z,8.36
2023-01-09T09:19:49.044Z,8.61
2023-01-09T09:23:53.019Z,8.72
2023-01-09T09:27:56.315Z,8.65
2023-01-09T09:32:00.808Z,8.74
2023-01-09T09:36:03.529Z,9.07
2023-01-09T09:40:18.672Z,9.18
2023-01-09T09:44:52.726Z,9.37
2023-01-09T09:49:01.627Z,9.76
2023-01-09T09:53:10.713Z,9.61
2023-01-09T09:57:19.021Z,9.51
2023-01-09T10:01:25.412Z,9.36
2023-01-09T10:05:31.017Z,9.47
2023-01-09T10:09:43.553Z,9.53
2023-01-09T10:14:06.006Z,9.44
2023-01-09T10:18:21.915Z,9.32
2023-01-09T10:22:28.168Z,9.49
2023-01-09T10:26:40.473Z,9.43
2023-01-09T10:30:49.446Z,9.25
2023-01-09T10:35:03.962Z,9.34
2023-01-09T10:39:11.932Z,9.32
2023-01-09T10:43:30.978Z,9.25
2023-01-09T10:47:38.138Z,9.45
2023-01-09T10:51:46.950Z,9.51
2023-01-09T10:55:54.357Z,9.52
2023-01-09T10:59:57.518Z,9.87
2023-01-09T11:04:02.334Z,10.06
2023-01-09T11:08:13.620Z,9.90
2023-01-09T11:12:25.264Z,9.77
2023-01-09T11:16:27.824Z,9.86
2023-01-09T11:20:31.759Z,10.03
2023-01-09T11:24:34.474Z,9.88
2023-01-09T11:28:36.971Z,9.68
2023-01-09T11:32:39.521Z,9.88
2023-01-09T11:36:43.430Z,9.92
2023-01-09T11:40:50.424Z,9.82
2023-01-09T11:44:59.030Z,9.78
2023-01-09T11:49:03.912Z,9.55
2023-01-09T11:53:16.377Z,9.61
2023-01-09T11:57:19.453Z,9.62
2023-01-09T12:02:02.258Z,9.74
2023-01-09T12:06:16.982Z,9.90
2023-01-09T12:10:39.273Z,10.18
2023-01-09T12:14:54.825Z,9.98
2023-01-09T12:19:12.873Z,9.93
2023-01-09T12:23:29.564Z,10.03
2023-01-09T12:27:51.485Z,9.77
2023-01-09T12:32:07.232Z,9.54
2023-01-09T12:36:23.752Z,9.59
2023-01-09T12:40:43.797Z,9.70
2023-01-09T12:45:15.375Z,9.69
2023-01-09T12:49:30.735Z,9.68
2023-01-09T12:53:37.533Z,9.90
2023-01-09T12:57:43.081Z,9.88
2023-01-09T13:01:49.467Z,9.81
2023-01-09T13:05:54.105Z,10.01
2023-01-09T13:10:03.463Z,10.10
2023-01-09T13:14:12.056Z,10.01
2023-01-09T13:18:23.497Z,10.02
2023-01-09T13:22:28.371Z,9.90
2023-01-09T13:26:35.004Z,9.99
2023-01-09T13:30:51.423Z,9.85
2023-01-09T13:34:57.318Z,9.83
2023-01-09T13:39:01.873Z,9.95
2023-01-09T13:43:08.354Z,9.98
2023-01-09T13:47:21.991Z,10.07
2023-01-09T13:52:00.318Z,9.89
2023-01-09T13:56:07.272Z,9.94
2023-01-09T14:00:47.533Z,9.78
2023-01-09T14:04:50.034Z,9.83
2023-01-09T14:09:13.739Z,9.91
2023-01-09T14:13:18.717Z,9.81
2023-01-09T14:17:29.372Z,9.86
2023-01-09T14:21:47.020Z,9.63
2023-01-09T14:25:51.931Z,9.25
2023-01-09T14:30:18.204Z,9.17
2023-01-09T14:34:31.827Z,9.26
2023-01-09T14:38:37.928Z,9.47
2023-01-09T14:42:43.209Z,9.51
2023-01-09T14:46:46.693Z,9.50
2023-01-09T14:50:51.117Z,9.48
2023-01-09T14:54:56.642Z,9.41
2023-01-09T14:59:11.993Z,9.32
2023-01-09T15:03:14.565Z,9.25
2023-01-09T15:07:21.172Z,9.25
2023-01-09T15:11:23.972Z,9.09
2023-01-09T15:15:28.763Z,8.90
2023-01-09T15:19:32.791Z,8.74
2023-01-09T15:23:35.284Z,8.86
2023-01-09T15:27:47.857Z,8.92
2023-01-09T15:31:55.747Z,8.92
2023-01-09T15:36:02.479Z,9.01
2023-01-09T15:40:08.981Z,9.08
2023-01-09T15:44:16.214Z,9.07
2023-01-09T15:48:29.357Z,8.95
2023-01-09T15:52:32.268Z,8.97
2023-01-09T15:56:35.378Z,8.96
2023-01-09T16:00:41.817Z,8.95
2023-01-09T16:04:46.383Z,8.90
2023-01-09T16:08:53.532Z,8.75
2023-01-09T16:12:56.357Z,8.71
2023-01-09T16:17:02.211Z,8.71
2023-01-09T16:21:31.938Z,8.75
2023-01-09T16:25:36.877Z,8.73
2023-01-09T16:29:45.987Z,8.67
2023-01-09T16:33:52.099Z,8.53
2023-01-09T16:37:56.002Z,8.53
2023-01-09T16:42:16.477Z,8.57
2023-01-09T16:46:22.085Z,8.53
2023-01-09T16:50:25.624Z,8.44
2023-01-09T16:54:29.359Z,8.49
2023-01-09T16:58:35.381Z,8.39
2023-01-09T17:02:37.957Z,8.34
2023-01-09T17:06:41.079Z,8.31
2023-01-09T17:10:44.940Z,8.41
2023-01-09T17:14:47.802Z,8.34
2023-01-09T17:18:50.298Z,8.39
2023-01-09T17:22:52.759Z,8.36
2023-01-09T17:27:14.414Z,8.32
2023-01-09T17:31:17.051Z,8.16
2023-01-09T17:35:19.654Z,8.09
2023-01-09T17:39:22.979Z,8.13
2023-01-09T17:43:26.850Z,8.09
2023-01-09T17:47:29.349Z,8.14
2023-01-09T17:51:31.975Z,8.15
2023-01-09T17:55:34.878Z,8.11
2023-01-09T17:59:38.691Z,8.15
2023-01-09T18:03:41.484Z,8.10
2023-01-09T18:07:43.968Z,8.02
2023-01-09T18:11:48.182Z,8.13
2023-01-09T18:15:52.075Z,8.02
2023-01-09T18:19:54.590Z,7.98
2023-01-09T18:23:57.859Z,7.93
2023-01-09T18:28:00.917Z,7.80
2023-01-09T18:32:05.162Z,7.75
2023-01-09T18:36:09.036Z,7.85
2023-01-09T18:40:12.512Z,7.89
2023-01-09T18:44:14.904Z,7.91
2023-01-09T18:48:18.701Z,7.94
2023-01-09T18:52:21.229Z,7.90
2023-01-09T18:56:24.734Z,7.93
2023-01-09T19:00:27.289Z,7.90
2023-01-09T19:04:31.327Z,7.93
2023-01-09T19:08:35.873Z,7.91
2023-01-09T19:12:38.536Z,7.88
2023-01-09T19:16:41.160Z,7.85
2023-01-09T19:20:45.101Z,7.81
2023-01-09T19:24:47.705Z,7.80
2023-01-09T19:28:51.748Z,7.87
2023-01-09T19:32:54.306Z,7.84
2023-01-09T19:36:58.181Z,7.68
2023-01-09T19:41:09.425Z,7.64
2023-01-09T19:45:12.363Z,7.70
2023-01-09T19:49:14.893Z,7.61
2023-01-09T19:53:18.733Z,7.62
2023-01-09T19:57:21.276Z,7.72
2023-01-09T20:01:26.208Z,7.64
2023-01-09T20:05:28.800Z,7.71
2023-01-09T20:09:32.816Z,7.60
2023-01-09T20:13:35.763Z,7.60
2023-01-09T20:17:38.273Z,7.72
2023-01-09T20:21:41.006Z,7.71
2023-01-09T20:25:46.663Z,7.82
2023-01-09T20:29:49.215Z,7.75
2023-01-09T20:33:52.109Z,7.83
2023-01-09T20:37:54.624Z,7.89
2023-01-09T20:41:58.504Z,7.97
2023-01-09T20:46:03.722Z,7.96
2023-01-09T20:50:07.330Z,7.84
2023-01-09T20:54:09.761Z,7.78
2023-01-09T20:58:13.660Z,7.72
2023-01-09T21:02:16.240Z,7.63
2023-01-09T21:06:20.530Z,7.61
2023-01-09T21:10:23.347Z,7.60
2023-01-09T21:14:27.270Z,7.50
2023-01-09T21:18:30.101Z,7.46
2023-01-09T21:22:33.796Z,7.41
2023-01-09T21:26:36.349Z,7.40
2023-01-09T21:30:40.174Z,7.43
2023-01-09T21:34:42.722Z,7.37
2023-01-09T21:38:47.359Z,7.42
2023-01-09T21:43:07.636Z,7.44
2023-01-09T21:47:11.567Z,7.56
2023-01-09T21:51:14.075Z,7.55
2023-01-09T21:55:16.708Z,7.47
2023-01-09T21:59:19.438Z,7.50
